Time;durP1;ratioP1;P1;durP2;ratioP2;P2;SDS_P1;SDS_P2;PMS_P1;PMS_P2;Temp;Humidity;BMP_temperature;BMP_pressure;BME280_temperature;BME280_humidity;BME280_pressure;Samples;Min_cycle;Max_cycle;Signal;HPM_P1;HPM_P2
2021/12/27 00:01:30;;;;;;;10.70;9.80;;;;;;;;;;5061736;28;20934;-83
2021/12/27 00:03:58;;;;;;;9.82;8.75;;;;;;;;;;5056664;28;20847;-82
2021/12/27 00:06:25;;;;;;;9.57;8.38;;;;;;;;;;5059831;28;20257;-82
2021/12/27 00:08:52;;;;;;;8.70;8.00;;;;;;;;;;5060649;28;20202;-81
2021/12/27 00:11:20;;;;;;;8.43;7.72;;;;;;;;;;5058113;28;20823;-82
2021/12/27 00:13:48;;;;;;;9.63;8.83;;;;;;;;;;5059656;28;20206;-83
2021/12/27 00:16:15;;;;;;;9.63;8.73;;;;;;;;;;5061014;28;20536;-82
2021/12/27 00:18:42;;;;;;;9.57;8.73;;;;;;;;;;5060363;28;20447;-82
2021/12/27 00:21:10;;;;;;;10.00;9.00;;;;;;;;;;5059548;28;20429;-83
2021/12/27 00:23:38;;;;;;;9.17;8.47;;;;;;;;;;5060159;28;20199;-82
2021/12/27 00:26:05;;;;;;;9.13;8.33;;;;;;;;;;5059885;28;20458;-81
2021/12/27 00:28:33;;;;;;;9.70;8.80;;;;;;;;;;5060126;28;20928;-82
2021/12/27 00:31:00;;;;;;;9.50;8.60;;;;;;;;;;5060481;28;20512;-82
2021/12/27 00:33:27;;;;;;;9.73;8.83;;;;;;;;;;5059079;28;20816;-82
2021/12/27 00:35:54;;;;;;;10.20;9.10;;;;;;;;;;5068593;28;20888;-82
2021/12/27 00:38:22;;;;;;;10.90;9.80;;;;;;;;;;5066290;28;20975;-81
2021/12/27 00:40:49;;;;;;;9.60;8.70;;;;;;;;;;5071855;28;20428;-82
2021/12/27 00:43:17;;;;;;;10.17;9.27;;;;;;;;;;5079236;28;20433;-81
2021/12/27 00:45:45;;;;;;;10.98;9.85;;;;;;;;;;5079370;28;20490;-81
2021/12/27 00:48:12;;;;;;;9.07;8.27;;;;;;;;;;5080803;28;20195;-82
2021/12/27 00:50:39;;;;;;;9.33;8.53;;;;;;;;;;5084422;28;20436;-80
2021/12/27 00:53:06;;;;;;;10.97;9.03;;;;;;;;;;5084471;28;20499;-80
2021/12/27 00:55:35;;;;;;;10.10;9.20;;;;;;;;;;5080455;28;20463;-82
2021/12/27 00:58:02;;;;;;;9.60;8.70;;;;;;;;;;5079527;28;20440;-81
2021/12/27 01:00:29;;;;;;;10.50;9.50;;;;;;;;;;5080449;28;20199;-82
2021/12/27 01:02:57;;;;;;;9.63;8.73;;;;;;;;;;5079039;28;20448;-81
2021/12/27 01:05:25;;;;;;;9.90;9.00;;;;;;;;;;5078716;28;20250;-82
2021/12/27 01:07:53;;;;;;;9.80;8.90;;;;;;;;;;5078761;28;20203;-80
2021/12/27 01:10:45;;;;;;;10.00;9.00;;;;;;;;;;5079487;28;20444;-83
2021/12/27 01:13:25;;;;;;;9.82;8.82;;;;;;;;;;5078509;28;20441;-82
2021/12/27 01:16:10;;;;;;;10.20;9.20;;;;;;;;;;5078135;28;20221;-81
2021/12/27 01:18:38;;;;;;;10.00;9.00;;;;;;;;;;5079674;28;20455;-81
2021/12/27 01:21:05;;;;;;;9.23;8.33;;;;;;;;;;5079148;28;20432;-82
2021/12/27 01:23:32;;;;;;;11.30;10.20;;;;;;;;;;5078785;28;20588;-83
2021/12/27 01:25:59;;;;;;;10.35;9.38;;;;;;;;;;5078813;28;21286;-81
2021/12/27 01:28:27;;;;;;;9.90;8.90;;;;;;;;;;5079240;28;20202;-81
2021/12/27 01:30:54;;;;;;;9.63;8.67;;;;;;;;;;5079424;28;20466;-81
2021/12/27 01:33:23;;;;;;;10.07;9.17;;;;;;;;;;5078980;28;20530;-82
2021/12/27 01:35:50;;;;;;;10.30;9.30;;;;;;;;;;5078798;28;20563;-82
2021/12/27 01:38:17;;;;;;;10.50;9.50;;;;;;;;;;5078765;28;20440;-80
2021/12/27 01:40:46;;;;;;;10.77;9.77;;;;;;;;;;5079786;28;20512;-83
2021/12/27 01:43:13;;;;;;;11.23;10.13;;;;;;;;;;5079111;28;20437;-83
2021/12/27 01:45:43;;;;;;;11.73;9.50;;;;;;;;;;5079214;28;20489;-81
2021/12/27 01:48:11;;;;;;;10.93;9.73;;;;;;;;;;5078735;28;20453;-81
2021/12/27 01:50:39;;;;;;;9.43;8.53;;;;;;;;;;5077784;28;20624;-81
2021/12/27 01:53:06;;;;;;;10.17;9.07;;;;;;;;;;5077690;28;20873;-82
2021/12/27 01:55:33;;;;;;;10.77;9.67;;;;;;;;;;5077356;28;20461;-83
2021/12/27 01:58:00;;;;;;;9.87;8.87;;;;;;;;;;5078708;28;20448;-81
2021/12/27 02:00:28;;;;;;;10.10;9.00;;;;;;;;;;5079135;28;20440;-81
2021/12/27 02:02:56;;;;;;;10.40;9.40;;;;;;;;;;5077845;28;20445;-81
2021/12/27 02:05:23;;;;;;;10.50;9.30;;;;;;;;;;5077860;28;20227;-81
2021/12/27 02:07:50;;;;;;;11.00;9.90;;;;;;;;;;5078347;28;20815;-80
2021/12/27 02:10:17;;;;;;;10.33;9.43;;;;;;;;;;5078637;28;20451;-81
2021/12/27 02:12:45;;;;;;;11.73;9.63;;;;;;;;;;5077794;28;20436;-81
2021/12/27 02:15:13;;;;;;;10.40;8.97;;;;;;;;;;5077866;28;20465;-82
2021/12/27 02:17:41;;;;;;;10.40;9.30;;;;;;;;;;5071202;28;20452;-81
2021/12/27 02:20:11;;;;;;;10.37;9.37;;;;;;;;;;5059623;28;20445;-81
2021/12/27 02:22:40;;;;;;;10.40;9.33;;;;;;;;;;5058842;28;20421;-81
2021/12/27 02:25:08;;;;;;;10.30;9.20;;;;;;;;;;5059243;28;20480;-80
2021/12/27 02:27:35;;;;;;;11.00;9.90;;;;;;;;;;5058492;28;20507;-83
2021/12/27 02:30:02;;;;;;;10.60;9.50;;;;;;;;;;5059217;28;20808;-83
2021/12/27 02:32:30;;;;;;;10.60;9.50;;;;;;;;;;5058691;28;20445;-81
2021/12/27 02:34:57;;;;;;;11.13;9.73;;;;;;;;;;5058896;28;20648;-82
2021/12/27 02:37:25;;;;;;;10.57;9.50;;;;;;;;;;5058554;28;20964;-81
2021/12/27 02:39:52;;;;;;;11.07;8.60;;;;;;;;;;5058203;28;20191;-81
2021/12/27 02:42:20;;;;;;;9.20;8.30;;;;;;;;;;5058946;28;20203;-81
2021/12/27 02:44:47;;;;;;;10.27;8.15;;;;;;;;;;5058496;28;20981;-82
2021/12/27 02:47:16;;;;;;;9.33;8.37;;;;;;;;;;5059288;28;20625;-83
2021/12/27 02:49:43;;;;;;;9.63;8.63;;;;;;;;;;5059088;28;20450;-81
2021/12/27 02:52:11;;;;;;;10.70;9.30;;;;;;;;;;5058464;28;20441;-82
2021/12/27 02:54:43;;;;;;;10.33;9.17;;;;;;;;;;5058631;28;20446;-81
2021/12/27 02:57:10;;;;;;;9.60;8.70;;;;;;;;;;5058358;28;20441;-81
2021/12/27 02:59:38;;;;;;;8.87;8.03;;;;;;;;;;5060029;28;20488;-82
2021/12/27 03:02:05;;;;;;;8.63;7.83;;;;;;;;;;5059072;28;20468;-81
2021/12/27 03:04:36;;;;;;;8.47;7.67;;;;;;;;;;5061414;28;20447;-81
2021/12/27 03:07:03;;;;;;;8.27;7.57;;;;;;;;;;5060484;28;20441;-80
2021/12/27 03:09:30;;;;;;;10.30;8.27;;;;;;;;;;5058540;28;20430;-81
2021/12/27 03:11:59;;;;;;;7.87;7.13;;;;;;;;;;5057532;28;20421;-82
2021/12/27 03:14:26;;;;;;;8.47;7.67;;;;;;;;;;5057724;28;20437;-81
2021/12/27 03:16:53;;;;;;;8.90;8.10;;;;;;;;;;5053795;28;20453;-81
2021/12/27 03:19:20;;;;;;;9.17;8.20;;;;;;;;;;5053076;28;20446;-81
2021/12/27 03:21:47;;;;;;;8.23;7.23;;;;;;;;;;5053663;28;21132;-79
2021/12/27 03:24:14;;;;;;;8.07;7.18;;;;;;;;;;5053361;28;20438;-80
2021/12/27 03:26:41;;;;;;;7.73;7.03;;;;;;;;;;5055634;28;20217;-80
2021/12/27 03:29:11;;;;;;;7.00;6.30;;;;;;;;;;5072805;28;20572;-80
2021/12/27 03:31:38;;;;;;;6.70;6.00;;;;;;;;;;5073679;28;20198;-80
2021/12/27 03:34:06;;;;;;;7.27;6.67;;;;;;;;;;5073429;28;20465;-79
2021/12/27 03:36:38;;;;;;;6.53;6.03;;;;;;;;;;5074147;28;20467;-80
2021/12/27 03:39:06;;;;;;;7.03;6.43;;;;;;;;;;5072674;28;20445;-81
2021/12/27 03:41:33;;;;;;;7.37;6.77;;;;;;;;;;5073545;28;20440;-80
2021/12/27 03:44:00;;;;;;;7.63;6.88;;;;;;;;;;5073689;28;20436;-80
2021/12/27 03:46:28;;;;;;;6.73;6.07;;;;;;;;;;5073091;28;20226;-80
2021/12/27 03:48:55;;;;;;;7.57;6.87;;;;;;;;;;5073365;28;20471;-81
2021/12/27 03:51:22;;;;;;;6.43;5.93;;;;;;;;;;5073814;28;20437;-81
2021/12/27 03:53:50;;;;;;;6.83;6.20;;;;;;;;;;5072935;28;20264;-80
2021/12/27 03:56:17;;;;;;;6.97;6.37;;;;;;;;;;5074030;28;20452;-81
2021/12/27 03:58:54;;;;;;;6.67;6.07;;;;;;;;;;5072929;28;20440;-80
2021/12/27 04:01:21;;;;;;;6.30;5.80;;;;;;;;;;5073027;28;20763;-81
2021/12/27 04:03:51;;;;;;;7.70;6.93;;;;;;;;;;5055148;28;20774;-80
2021/12/27 04:06:19;;;;;;;6.57;6.07;;;;;;;;;;5053158;28;20504;-80
2021/12/27 04:08:46;;;;;;;5.80;5.30;;;;;;;;;;5053998;28;20446;-80
2021/12/27 04:11:13;;;;;;;5.47;5.07;;;;;;;;;;5052176;28;20447;-80
2021/12/27 04:13:41;;;;;;;5.33;4.93;;;;;;;;;;5053584;28;20866;-80
2021/12/27 04:16:08;;;;;;;5.43;5.03;;;;;;;;;;5053040;28;20516;-80
2021/12/27 04:18:36;;;;;;;5.43;4.93;;;;;;;;;;5055475;28;20454;-80
2021/12/27 04:21:04;;;;;;;6.67;5.77;;;;;;;;;;5055474;28;20926;-80
2021/12/27 04:23:31;;;;;;;6.15;5.65;;;;;;;;;;5053668;28;20454;-84
2021/12/27 04:25:58;;;;;;;6.30;5.80;;;;;;;;;;5053843;28;20223;-80
2021/12/27 04:28:25;;;;;;;5.33;4.83;;;;;;;;;;5053396;28;20873;-80
2021/12/27 04:30:52;;;;;;;5.70;5.30;;;;;;;;;;5058778;28;20430;-80
2021/12/27 04:33:20;;;;;;;5.43;5.00;;;;;;;;;;5064822;28;20430;-80
2021/12/27 04:35:47;;;;;;;6.40;5.80;;;;;;;;;;5061601;28;20457;-80
2021/12/27 04:38:15;;;;;;;5.17;4.77;;;;;;;;;;5062251;28;20450;-79
2021/12/27 04:40:44;;;;;;;5.93;5.33;;;;;;;;;;5064031;28;20441;-80
2021/12/27 04:43:13;;;;;;;5.20;4.80;;;;;;;;;;5066064;28;20449;-82
2021/12/27 04:45:40;;;;;;;5.30;4.80;;;;;;;;;;5066918;28;20481;-81
2021/12/27 04:48:08;;;;;;;5.33;4.83;;;;;;;;;;5064355;28;20445;-81
2021/12/27 04:50:35;;;;;;;5.50;5.10;;;;;;;;;;5068365;28;20451;-80
2021/12/27 04:53:02;;;;;;;5.37;4.87;;;;;;;;;;5063201;28;20944;-81
2021/12/27 04:55:31;;;;;;;5.20;4.70;;;;;;;;;;5061335;28;20531;-80
2021/12/27 04:57:58;;;;;;;5.28;4.80;;;;;;;;;;5061880;28;20440;-81
2021/12/27 05:00:25;;;;;;;3.97;3.67;;;;;;;;;;5061670;28;20231;-82
2021/12/27 05:02:52;;;;;;;4.30;3.90;;;;;;;;;;5071225;28;20879;-81
2021/12/27 05:05:19;;;;;;;4.23;3.97;;;;;;;;;;5081348;28;20488;-80
2021/12/27 05:07:47;;;;;;;5.80;4.27;;;;;;;;;;5080989;28;20923;-82
2021/12/27 05:10:16;;;;;;;4.73;4.30;;;;;;;;;;5081235;28;20572;-83
2021/12/27 05:12:44;;;;;;;5.20;4.80;;;;;;;;;;5076323;28;20456;-81
2021/12/27 05:15:11;;;;;;;4.70;4.30;;;;;;;;;;5081679;28;20501;-81
2021/12/27 05:17:38;;;;;;;4.20;3.90;;;;;;;;;;5082639;28;20432;-80
2021/12/27 05:20:08;;;;;;;4.38;4.07;;;;;;;;;;5082214;28;20433;-82
2021/12/27 05:22:35;;;;;;;4.73;4.43;;;;;;;;;;5080720;28;20198;-81
2021/12/27 05:25:02;;;;;;;4.03;3.73;;;;;;;;;;5081117;28;20469;-80
2021/12/27 05:27:29;;;;;;;4.20;3.80;;;;;;;;;;5081044;28;20428;-80
2021/12/27 05:29:58;;;;;;;4.07;3.70;;;;;;;;;;5081626;28;20431;-81
2021/12/27 05:32:25;;;;;;;3.50;3.20;;;;;;;;;;5080570;28;20191;-80
2021/12/27 05:34:52;;;;;;;4.13;3.83;;;;;;;;;;5080565;28;20263;-83
2021/12/27 05:37:19;;;;;;;3.67;3.37;;;;;;;;;;5080783;28;20433;-80
2021/12/27 05:39:47;;;;;;;3.83;3.53;;;;;;;;;;5081239;28;20436;-82
2021/12/27 05:42:14;;;;;;;5.13;4.72;;;;;;;;;;5080830;28;20433;-81
2021/12/27 05:44:41;;;;;;;6.03;5.00;;;;;;;;;;5079715;28;20193;-82
2021/12/27 05:47:09;;;;;;;5.80;5.30;;;;;;;;;;5080769;28;20469;-80
2021/12/27 05:49:36;;;;;;;5.50;5.10;;;;;;;;;;5080255;28;20437;-81
2021/12/27 05:52:04;;;;;;;5.30;4.90;;;;;;;;;;5078605;28;20441;-81
2021/12/27 05:54:31;;;;;;;4.50;4.10;;;;;;;;;;5079225;28;20456;-80
2021/12/27 05:56:58;;;;;;;5.90;5.50;;;;;;;;;;5079985;28;20468;-81
2021/12/27 05:59:25;;;;;;;6.87;6.30;;;;;;;;;;5079796;28;20986;-82
2021/12/27 06:01:52;;;;;;;6.50;5.93;;;;;;;;;;5078724;28;20449;-80
2021/12/27 06:04:20;;;;;;;7.40;6.80;;;;;;;;;;5077461;28;20445;-81
2021/12/27 06:06:47;;;;;;;7.40;6.80;;;;;;;;;;5078289;28;20473;-80
2021/12/27 06:09:14;;;;;;;7.07;6.47;;;;;;;;;;5080672;28;20456;-79
2021/12/27 06:11:41;;;;;;;7.35;6.72;;;;;;;;;;5082591;28;20979;-80
2021/12/27 06:14:08;;;;;;;7.00;6.50;;;;;;;;;;5085695;28;20203;-81
2021/12/27 06:16:35;;;;;;;10.03;9.13;;;;;;;;;;5086435;28;20468;-80
2021/12/27 06:19:02;;;;;;;9.33;8.53;;;;;;;;;;5079861;28;20445;-79
2021/12/27 06:21:33;;;;;;;11.93;10.73;;;;;;;;;;5075698;28;20432;-80
2021/12/27 06:24:00;;;;;;;11.30;10.20;;;;;;;;;;5067437;28;20855;-80
2021/12/27 06:26:27;;;;;;;11.50;10.50;;;;;;;;;;5075210;28;20480;-80
2021/12/27 06:28:54;;;;;;;10.60;9.60;;;;;;;;;;5074928;28;20209;-79
2021/12/27 06:31:22;;;;;;;10.40;9.47;;;;;;;;;;5074353;28;20441;-79
2021/12/27 06:33:49;;;;;;;9.23;8.43;;;;;;;;;;5074917;28;20528;-79
2021/12/27 06:36:16;;;;;;;8.43;7.60;;;;;;;;;;5074192;28;20464;-79
2021/12/27 06:38:44;;;;;;;7.83;7.13;;;;;;;;;;5074371;28;20460;-80
2021/12/27 06:41:12;;;;;;;7.50;6.90;;;;;;;;;;5074851;28;20434;-79
2021/12/27 06:43:39;;;;;;;8.30;7.60;;;;;;;;;;5074873;28;20952;-80
2021/12/27 06:46:06;;;;;;;8.00;7.40;;;;;;;;;;5073943;28;20477;-79
2021/12/27 06:48:33;;;;;;;8.52;7.80;;;;;;;;;;5077161;28;20501;-79
2021/12/27 06:51:00;;;;;;;7.60;7.00;;;;;;;;;;5077537;28;20194;-78
2021/12/27 06:53:30;;;;;;;8.07;7.47;;;;;;;;;;5073699;28;20429;-79
2021/12/27 06:55:59;;;;;;;8.20;7.60;;;;;;;;;;5076875;28;20467;-79
2021/12/27 06:58:26;;;;;;;10.77;9.10;;;;;;;;;;5076212;28;20204;-80
2021/12/27 07:00:53;;;;;;;12.73;11.10;;;;;;;;;;5078313;28;20524;-81
2021/12/27 07:03:20;;;;;;;12.37;11.17;;;;;;;;;;5064785;28;20441;-80
2021/12/27 07:05:48;;;;;;;10.50;9.50;;;;;;;;;;5062336;28;20454;-79
2021/12/27 07:08:15;;;;;;;9.73;8.93;;;;;;;;;;5066759;28;20446;-78
2021/12/27 07:10:42;;;;;;;9.20;8.40;;;;;;;;;;5072747;28;20442;-78
2021/12/27 07:13:11;;;;;;;9.80;8.90;;;;;;;;;;5075162;28;20437;-82
2021/12/27 07:15:41;;;;;;;9.20;8.40;;;;;;;;;;5071335;28;20446;-80
2021/12/27 07:18:08;;;;;;;9.27;8.50;;;;;;;;;;5074253;28;20805;-80
2021/12/27 07:20:35;;;;;;;10.13;9.13;;;;;;;;;;5060134;28;20447;-81
2021/12/27 07:23:02;;;;;;;8.90;8.13;;;;;;;;;;5059926;28;20549;-79
2021/12/27 07:25:29;;;;;;;9.65;8.88;;;;;;;;;;5062643;28;20466;-80
2021/12/27 07:27:56;;;;;;;10.00;8.47;;;;;;;;;;5063265;28;20237;-80
2021/12/27 07:30:25;;;;;;;12.52;9.15;;;;;;;;;;5061720;28;20452;-81
2021/12/27 07:32:52;;;;;;;9.00;8.20;;;;;;;;;;5066058;28;20210;-81
2021/12/27 07:35:19;;;;;;;9.27;8.53;;;;;;;;;;5063126;28;20465;-80
2021/12/27 07:37:46;;;;;;;8.83;8.10;;;;;;;;;;5058819;28;20434;-81
2021/12/27 07:40:13;;;;;;;9.87;8.97;;;;;;;;;;5058284;28;20525;-79
2021/12/27 07:42:40;;;;;;;9.30;8.53;;;;;;;;;;5057361;28;20453;-79
2021/12/27 07:45:07;;;;;;;8.85;8.15;;;;;;;;;;5058561;28;20476;-80
2021/12/27 07:47:36;;;;;;;9.37;8.57;;;;;;;;;;5058672;28;20223;-80
2021/12/27 07:50:04;;;;;;;15.80;14.13;;;;;;;;;;5061917;28;20442;-80
2021/12/27 07:52:31;;;;;;;9.77;8.87;;;;;;;;;;5064374;28;20449;-79
2021/12/27 07:54:58;;;;;;;9.53;8.63;;;;;;;;;;5061132;28;20453;-82
2021/12/27 07:57:25;;;;;;;7.80;6.55;;;;;;;;;;5053499;28;20810;-81
2021/12/27 07:59:52;;;;;;;9.55;7.72;;;;;;;;;;5054322;28;20612;-80
2021/12/27 08:02:19;;;;;;;8.50;7.82;;;;;;;;;;5061488;28;20194;-80
2021/12/27 08:04:47;;;;;;;8.23;7.53;;;;;;;;;;5087771;28;20195;-81
2021/12/27 08:07:14;;;;;;;8.23;7.47;;;;;;;;;;5076814;28;21005;-80
2021/12/27 08:09:41;;;;;;;7.67;7.10;;;;;;;;;;5073819;28;20962;-80
2021/12/27 08:12:12;;;;;;;8.03;7.33;;;;;;;;;;5073110;28;20783;-79
2021/12/27 08:14:39;;;;;;;11.40;10.40;;;;;;;;;;5073574;28;20598;-79
2021/12/27 08:17:06;;;;;;;9.70;8.43;;;;;;;;;;5072861;28;20437;-80
2021/12/27 08:19:33;;;;;;;8.30;7.60;;;;;;;;;;5072599;28;20437;-81
2021/12/27 08:22:02;;;;;;;9.00;8.10;;;;;;;;;;5072873;28;21006;-80
2021/12/27 08:24:29;;;;;;;8.93;7.63;;;;;;;;;;5072340;28;20457;-81
2021/12/27 08:26:56;;;;;;;10.27;9.27;;;;;;;;;;5076232;28;20873;-79
2021/12/27 08:29:23;;;;;;;10.67;9.23;;;;;;;;;;5077551;28;20440;-80
2021/12/27 08:31:50;;;;;;;16.63;14.70;;;;;;;;;;5077663;28;20519;-80
2021/12/27 08:34:17;;;;;;;137.97;87.87;;;;;;;;;;5077089;28;20490;-79
2021/12/27 08:36:44;;;;;;;40.13;32.70;;;;;;;;;;5078292;28;20461;-79
2021/12/27 08:39:13;;;;;;;11.50;10.30;;;;;;;;;;5078363;28;20437;-79
2021/12/27 08:41:41;;;;;;;10.93;9.50;;;;;;;;;;5078985;28;20437;-81
2021/12/27 08:44:08;;;;;;;8.87;8.17;;;;;;;;;;5079170;28;20657;-80
2021/12/27 08:46:35;;;;;;;8.87;7.97;;;;;;;;;;5078614;28;20527;-80
2021/12/27 08:49:03;;;;;;;7.57;6.97;;;;;;;;;;5071350;28;20519;-80
2021/12/27 08:51:30;;;;;;;11.77;9.73;;;;;;;;;;5089163;28;20433;-80
2021/12/27 08:53:58;;;;;;;6.60;6.03;;;;;;;;;;5099624;28;20448;-80
2021/12/27 08:56:26;;;;;;;5.87;5.37;;;;;;;;;;5100062;28;20468;-82
2021/12/27 08:58:54;;;;;;;6.90;5.90;;;;;;;;;;5099927;28;20425;-81
2021/12/27 09:01:21;;;;;;;5.63;5.13;;;;;;;;;;5099789;28;20452;-80
2021/12/27 09:03:48;;;;;;;5.17;4.60;;;;;;;;;;5099466;28;20448;-81
2021/12/27 09:06:15;;;;;;;4.97;4.57;;;;;;;;;;5099353;28;20446;-80
2021/12/27 09:08:42;;;;;;;4.73;4.23;;;;;;;;;;5098496;28;20428;-79
2021/12/27 09:11:10;;;;;;;7.43;4.37;;;;;;;;;;5097613;28;20460;-80
2021/12/27 09:13:38;;;;;;;5.10;4.70;;;;;;;;;;5097203;28;20908;-81
2021/12/27 09:16:07;;;;;;;5.00;4.60;;;;;;;;;;5097537;28;20494;-79
2021/12/27 09:18:35;;;;;;;4.75;4.35;;;;;;;;;;5097121;28;20473;-80
2021/12/27 09:21:02;;;;;;;5.00;4.60;;;;;;;;;;5096679;28;20206;-79
2021/12/27 09:23:29;;;;;;;4.53;4.13;;;;;;;;;;5095548;28;20427;-80
2021/12/27 09:25:56;;;;;;;7.60;6.67;;;;;;;;;;5081518;28;20449;-79
2021/12/27 09:28:24;;;;;;;7.50;6.80;;;;;;;;;;5075191;28;20873;-79
2021/12/27 09:30:52;;;;;;;10.00;9.00;;;;;;;;;;5075714;28;20818;-80
2021/12/27 09:33:19;;;;;;;9.48;8.55;;;;;;;;;;5076489;28;20206;-80
2021/12/27 09:35:46;;;;;;;7.70;7.10;;;;;;;;;;5074722;28;20696;-79
2021/12/27 09:38:13;;;;;;;7.47;6.87;;;;;;;;;;5073466;28;20443;-79
2021/12/27 09:40:41;;;;;;;7.70;7.00;;;;;;;;;;5074667;28;20452;-81
2021/12/27 09:43:08;;;;;;;7.97;5.67;;;;;;;;;;5074140;28;20453;-79
2021/12/27 09:45:35;;;;;;;6.03;5.37;;;;;;;;;;5075227;28;20478;-80
2021/12/27 09:48:04;;;;;;;8.90;5.87;;;;;;;;;;5069990;28;20510;-79
2021/12/27 09:50:33;;;;;;;6.80;6.10;;;;;;;;;;5055309;28;20955;-80
2021/12/27 09:53:00;;;;;;;4.93;4.63;;;;;;;;;;5054850;28;20450;-79
2021/12/27 09:55:29;;;;;;;5.33;4.93;;;;;;;;;;5055292;28;20475;-80
2021/12/27 09:57:56;;;;;;;5.40;4.90;;;;;;;;;;5054733;28;20455;-80
2021/12/27 10:00:23;;;;;;;6.43;5.53;;;;;;;;;;5055567;28;20909;-80
2021/12/27 10:02:51;;;;;;;6.30;5.07;;;;;;;;;;5056705;28;20866;-80
2021/12/27 10:05:20;;;;;;;4.03;3.70;;;;;;;;;;5060644;28;20478;-80
2021/12/27 10:07:48;;;;;;;3.70;3.40;;;;;;;;;;5075095;28;20512;-80
2021/12/27 10:10:15;;;;;;;4.40;4.10;;;;;;;;;;5075049;28;20460;-80
2021/12/27 10:12:42;;;;;;;4.40;4.00;;;;;;;;;;5076485;28;20816;-81
2021/12/27 10:15:11;;;;;;;3.67;3.37;;;;;;;;;;5076574;28;20491;-80
2021/12/27 10:17:39;;;;;;;5.20;4.20;;;;;;;;;;5075484;28;20433;-82
2021/12/27 10:20:10;;;;;;;3.27;3.00;;;;;;;;;;5077333;28;20446;-80
2021/12/27 10:22:40;;;;;;;4.30;3.93;;;;;;;;;;5078160;28;20462;-80
2021/12/27 10:25:09;;;;;;;5.20;4.33;;;;;;;;;;5085557;28;20514;-79
2021/12/27 10:27:36;;;;;;;3.93;3.63;;;;;;;;;;5085358;28;20503;-79
2021/12/27 10:30:10;;;;;;;3.13;2.93;;;;;;;;;;5092231;28;20429;-81
2021/12/27 10:32:37;;;;;;;3.30;3.10;;;;;;;;;;5093078;28;20448;-80
2021/12/27 10:35:06;;;;;;;2.80;2.60;;;;;;;;;;5093829;28;20464;-80
2021/12/27 10:37:34;;;;;;;4.17;3.70;;;;;;;;;;5094267;28;20638;-80
2021/12/27 10:40:04;;;;;;;3.43;3.13;;;;;;;;;;5094529;28;20445;-79
2021/12/27 10:42:33;;;;;;;3.67;3.47;;;;;;;;;;5084881;28;20448;-81
2021/12/27 10:45:01;;;;;;;3.80;3.50;;;;;;;;;;5079671;28;21037;-80
2021/12/27 10:47:34;;;;;;;3.00;2.80;;;;;;;;;;5078567;28;20476;-80
2021/12/27 10:50:05;;;;;;;3.37;3.13;;;;;;;;;;5080025;28;20436;-80
2021/12/27 10:52:42;;;;;;;3.57;3.27;;;;;;;;;;5078470;28;20453;-80
2021/12/27 10:55:11;;;;;;;3.13;2.93;;;;;;;;;;5078571;28;20463;-81
2021/12/27 10:57:38;;;;;;;3.50;3.27;;;;;;;;;;5074522;28;20448;-80
2021/12/27 11:00:20;;;;;;;4.00;3.60;;;;;;;;;;5073328;28;20444;-81
2021/12/27 11:02:47;;;;;;;10.90;9.80;;;;;;;;;;5075682;28;20437;-81
2021/12/27 11:05:15;;;;;;;4.77;4.37;;;;;;;;;;5076051;28;20975;-80
2021/12/27 11:07:43;;;;;;;5.60;4.10;;;;;;;;;;5076316;28;20476;-79
2021/12/27 11:10:11;;;;;;;3.90;3.50;;;;;;;;;;5074331;28;20457;-81
2021/12/27 11:12:39;;;;;;;3.60;3.30;;;;;;;;;;5076199;28;20818;-79
2021/12/27 11:15:09;;;;;;;3.30;3.10;;;;;;;;;;5075453;28;20510;-80
2021/12/27 11:17:36;;;;;;;3.00;2.80;;;;;;;;;;5075341;28;20961;-80
2021/12/27 11:20:05;;;;;;;3.15;2.95;;;;;;;;;;5077185;28;20206;-80
2021/12/27 11:22:32;;;;;;;3.97;3.20;;;;;;;;;;5077092;28;20233;-79
2021/12/27 11:25:03;;;;;;;3.27;3.07;;;;;;;;;;5077475;28;20445;-80
2021/12/27 11:27:34;;;;;;;3.10;2.90;;;;;;;;;;5077190;28;20472;-79
2021/12/27 11:30:10;;;;;;;3.30;3.10;;;;;;;;;;5077347;28;20448;-80
2021/12/27 11:32:37;;;;;;;3.60;3.30;;;;;;;;;;5077043;28;20440;-80
2021/12/27 11:35:09;;;;;;;4.28;3.97;;;;;;;;;;5075275;28;20912;-80
2021/12/27 11:37:37;;;;;;;3.77;3.47;;;;;;;;;;5075463;28;20217;-81
2021/12/27 11:40:05;;;;;;;3.50;3.30;;;;;;;;;;5078347;28;20445;-80
2021/12/27 11:42:52;;;;;;;3.27;2.97;;;;;;;;;;5077264;28;20456;-79
2021/12/27 11:45:37;;;;;;;3.97;3.67;;;;;;;;;;5071686;28;20440;-81
2021/12/27 11:48:08;;;;;;;4.57;3.75;;;;;;;;;;5058320;28;20496;-80
2021/12/27 11:50:46;;;;;;;3.67;3.37;;;;;;;;;;5057664;28;20234;-80
2021/12/27 11:53:26;;;;;;;3.20;2.97;;;;;;;;;;5071552;28;20433;-81
2021/12/27 11:55:53;;;;;;;4.27;3.87;;;;;;;;;;5077612;28;20453;-80
2021/12/27 11:58:32;;;;;;;3.87;3.60;;;;;;;;;;5077076;28;20851;-80
2021/12/27 12:00:59;;;;;;;4.47;4.07;;;;;;;;;;5077214;28;20440;-81
2021/12/27 12:03:38;;;;;;;4.00;3.70;;;;;;;;;;5068940;28;20333;-80
2021/12/27 12:06:05;;;;;;;4.43;4.13;;;;;;;;;;5070036;28;20476;-81
2021/12/27 12:08:48;;;;;;;4.20;3.80;;;;;;;;;;5077687;28;21007;-81
2021/12/27 12:11:15;;;;;;;4.50;4.20;;;;;;;;;;5085253;28;20482;-80
2021/12/27 12:13:45;;;;;;;7.43;6.73;;;;;;;;;;5090192;28;20466;-79
2021/12/27 12:16:14;;;;;;;6.90;6.30;;;;;;;;;;5088984;28;20461;-80
2021/12/27 12:18:42;;;;;;;5.20;4.77;;;;;;;;;;5092679;28;20431;-80
2021/12/27 12:21:24;;;;;;;4.97;4.57;;;;;;;;;;5088102;28;20471;-80
2021/12/27 12:23:55;;;;;;;4.90;4.50;;;;;;;;;;5087408;28;20508;-79
2021/12/27 12:26:22;;;;;;;5.67;5.20;;;;;;;;;;5091513;28;20486;-79
2021/12/27 12:28:59;;;;;;;5.33;4.93;;;;;;;;;;5095531;28;20483;-81
2021/12/27 12:31:28;;;;;;;23.27;16.83;;;;;;;;;;5096237;28;20429;-80
2021/12/27 12:33:55;;;;;;;20.77;17.63;;;;;;;;;;5093548;28;20441;-80
2021/12/27 12:36:22;;;;;;;6.33;5.80;;;;;;;;;;5095999;28;20535;-80
2021/12/27 12:38:49;;;;;;;4.70;4.20;;;;;;;;;;5091677;28;20448;-81
2021/12/27 12:41:18;;;;;;;5.53;5.07;;;;;;;;;;5087990;28;20438;-81
2021/12/27 12:43:46;;;;;;;6.50;5.03;;;;;;;;;;5079431;28;21047;-80
2021/12/27 12:46:16;;;;;;;6.30;4.93;;;;;;;;;;5072249;28;20847;-80
2021/12/27 12:48:43;;;;;;;5.90;5.07;;;;;;;;;;5070567;28;20680;-82
2021/12/27 12:51:10;;;;;;;5.50;5.10;;;;;;;;;;5064843;28;20571;-81
2021/12/27 12:53:37;;;;;;;5.97;5.47;;;;;;;;;;5072940;28;20452;-82
2021/12/27 12:56:06;;;;;;;4.73;4.43;;;;;;;;;;5073358;28;20457;-81
2021/12/27 12:58:34;;;;;;;5.93;5.33;;;;;;;;;;5065091;28;20459;-79
2021/12/27 13:01:05;;;;;;;5.00;4.60;;;;;;;;;;5070595;28;20456;-78
2021/12/27 13:03:34;;;;;;;5.68;5.15;;;;;;;;;;5070047;28;20471;-78
2021/12/27 13:06:03;;;;;;;4.80;4.33;;;;;;;;;;5071127;28;20219;-80
2021/12/27 13:08:30;;;;;;;5.30;4.90;;;;;;;;;;5073577;28;20552;-80
2021/12/27 13:10:58;;;;;;;4.80;4.40;;;;;;;;;;5072175;28;20570;-81
2021/12/27 13:13:26;;;;;;;4.57;4.27;;;;;;;;;;5070044;28;20505;-81
2021/12/27 13:15:54;;;;;;;4.80;4.40;;;;;;;;;;5078227;28;20545;-81
2021/12/27 13:18:22;;;;;;;5.10;4.70;;;;;;;;;;5074471;28;20445;-80
2021/12/27 13:20:52;;;;;;;6.07;5.47;;;;;;;;;;5069409;28;20448;-75
2021/12/27 13:23:20;;;;;;;5.70;5.20;;;;;;;;;;5066494;28;20464;-77
2021/12/27 13:25:48;;;;;;;5.43;5.00;;;;;;;;;;5067864;28;20566;-76
2021/12/27 13:28:17;;;;;;;4.70;4.33;;;;;;;;;;5067300;28;20484;-76
2021/12/27 13:31:01;;;;;;;5.30;4.83;;;;;;;;;;5064101;28;20444;-76
2021/12/27 13:33:30;;;;;;;3.90;3.60;;;;;;;;;;5061578;28;20449;-75
2021/12/27 13:35:59;;;;;;;3.67;3.37;;;;;;;;;;5062273;28;20484;-75
2021/12/27 13:38:31;;;;;;;3.43;3.23;;;;;;;;;;5070557;28;20866;-80
2021/12/27 13:40:59;;;;;;;3.40;3.20;;;;;;;;;;5070252;28;20463;-79
2021/12/27 13:43:26;;;;;;;3.50;3.30;;;;;;;;;;5069112;28;20453;-75
2021/12/27 13:45:54;;;;;;;3.20;3.00;;;;;;;;;;5057032;28;20465;-75
2021/12/27 13:48:29;;;;;;;3.10;2.90;;;;;;;;;;5071949;28;21014;-76
2021/12/27 13:50:56;;;;;;;3.90;3.60;;;;;;;;;;5065759;28;20507;-75
2021/12/27 13:53:25;;;;;;;3.90;3.60;;;;;;;;;;5066667;28;20556;-77
2021/12/27 13:55:52;;;;;;;3.93;3.43;;;;;;;;;;5068219;28;20214;-77
2021/12/27 13:58:20;;;;;;;3.47;3.17;;;;;;;;;;5065683;28;20441;-75
2021/12/27 14:00:48;;;;;;;3.97;3.63;;;;;;;;;;5065007;28;20442;-75
2021/12/27 14:03:25;;;;;;;4.40;4.00;;;;;;;;;;5065647;28;20448;-76
2021/12/27 14:05:54;;;;;;;4.57;4.17;;;;;;;;;;5062386;28;20479;-75
2021/12/27 14:08:21;;;;;;;3.37;3.07;;;;;;;;;;5067342;28;20568;-75
2021/12/27 14:11:01;;;;;;;3.90;3.60;;;;;;;;;;5064923;28;20517;-75
2021/12/27 14:13:43;;;;;;;4.13;3.80;;;;;;;;;;5063603;28;20523;-76
2021/12/27 14:16:18;;;;;;;3.43;3.23;;;;;;;;;;5064313;28;20480;-75
2021/12/27 14:19:00;;;;;;;3.27;3.07;;;;;;;;;;5063705;28;20463;-77
2021/12/27 14:21:27;;;;;;;3.80;3.50;;;;;;;;;;5061865;28;20457;-75
2021/12/27 14:24:02;;;;;;;3.80;3.50;;;;;;;;;;5062971;28;20829;-75
2021/12/27 14:26:30;;;;;;;4.40;4.03;;;;;;;;;;5065980;28;20542;-76
2021/12/27 14:29:12;;;;;;;4.00;3.70;;;;;;;;;;5065768;28;20472;-75
2021/12/27 14:31:39;;;;;;;6.43;3.60;;;;;;;;;;5069941;28;20444;-75
2021/12/27 14:34:06;;;;;;;5.72;3.58;;;;;;;;;;5069779;28;20472;-75
2021/12/27 14:36:33;;;;;;;3.70;3.40;;;;;;;;;;5068324;28;20576;-76
2021/12/27 14:39:00;;;;;;;3.70;3.40;;;;;;;;;;5067429;28;20458;-76
2021/12/27 14:41:27;;;;;;;3.30;3.10;;;;;;;;;;5068924;28;20503;-76
2021/12/27 14:43:56;;;;;;;4.40;4.00;;;;;;;;;;5070143;28;20691;-77
2021/12/27 14:46:23;;;;;;;3.90;3.60;;;;;;;;;;5071098;28;20979;-77
2021/12/27 14:48:50;;;;;;;3.60;3.30;;;;;;;;;;5071624;28;20213;-76